sensor_id;sensor_type;location;lat;lon;timestamp;P1;durP1;ratioP1;P2;durP2;ratioP2
3405;SDS011;10008;48.682;9.016;2023-10-09T00:00:26;23.47;;;12.30;;
3405;SDS011;10008;48.682;9.016;2023-10-09T00:03:18;19.07;;;12.10;;
3405;SDS011;10008;48.682;9.016;2023-10-09T00:05:47;21.57;;;13.43;;
3405;SDS011;10008;48.682;9.016;2023-10-09T00:08:15;18.90;;;11.97;;
3405;SDS011;10008;48.682;9.016;2023-10-09T00:10:46;17.87;;;12.27;;
3405;SDS011;10008;48.682;9.016;2023-10-09T00:13:23;19.33;;;12.27;;
3405;SDS011;10008;48.682;9.016;2023-10-09T00:16:03;18.73;;;13.27;;
3405;SDS011;10008;48.682;9.016;2023-10-09T00:18:39;20.63;;;13.87;;
3405;SDS011;10008;48.682;9.016;2023-10-09T00:21:17;20.10;;;13.70;;
3405;SDS011;10008;48.682;9.016;2023-10-09T00:23:48;17.27;;;13.13;;
3405;SDS011;10008;48.682;9.016;2023-10-09T00:26:20;22.90;;;13.77;;
3405;SDS011;10008;48.682;9.016;2023-10-09T00:28:49;22.23;;;13.00;;
3405;SDS011;10008;48.682;9.016;2023-10-09T00:31:16;23.97;;;12.63;;
3405;SDS011;10008;48.682;9.016;2023-10-09T00:33:55;21.67;;;13.60;;
3405;SDS011;10008;48.682;9.016;2023-10-09T00:36:26;27.87;;;13.17;;
3405;SDS011;10008;48.682;9.016;2023-10-09T00:38:55;28.37;;;13.80;;
3405;SDS011;10008;48.682;9.016;2023-10-09T00:41:24;17.87;;;12.43;;
3405;SDS011;10008;48.682;9.016;2023-10-09T00:43:50;20.33;;;12.40;;
3405;SDS011;10008;48.682;9.016;2023-10-09T00:46:18;23.03;;;11.73;;
3405;SDS011;10008;48.682;9.016;2023-10-09T00:48:50;18.63;;;11.73;;
3405;SDS011;10008;48.682;9.016;2023-10-09T00:51:19;20.03;;;13.03;;
3405;SDS011;10008;48.682;9.016;2023-10-09T00:53:50;21.50;;;12.83;;
3405;SDS011;10008;48.682;9.016;2023-10-09T00:56:23;24.53;;;11.63;;
3405;SDS011;10008;48.682;9.016;2023-10-09T00:58:52;22.07;;;11.83;;
3405;SDS011;10008;48.682;9.016;2023-10-09T01:01:39;16.77;;;12.03;;
3405;SDS011;10008;48.682;9.016;2023-10-09T01:04:06;17.67;;;12.33;;
3405;SDS011;10008;48.682;9.016;2023-10-09T01:06:38;17.90;;;11.93;;
3405;SDS011;10008;48.682;9.016;2023-10-09T01:09:13;21.07;;;12.87;;
3405;SDS011;10008;48.682;9.016;2023-10-09T01:11:41;21.00;;;13.90;;
3405;SDS011;10008;48.682;9.016;2023-10-09T01:14:14;17.00;;;12.50;;
3405;SDS011;10008;48.682;9.016;2023-10-09T01:16:41;18.70;;;13.00;;
3405;SDS011;10008;48.682;9.016;2023-10-09T01:19:07;20.37;;;13.60;;
3405;SDS011;10008;48.682;9.016;2023-10-09T01:21:51;19.20;;;13.37;;
3405;SDS011;10008;48.682;9.016;2023-10-09T01:24:18;16.50;;;12.13;;
3405;SDS011;10008;48.682;9.016;2023-10-09T01:26:48;18.57;;;12.53;;
3405;SDS011;10008;48.682;9.016;2023-10-09T01:29:21;16.53;;;12.80;;
3405;SDS011;10008;48.682;9.016;2023-10-09T01:31:53;21.53;;;13.30;;
3405;SDS011;10008;48.682;9.016;2023-10-09T01:34:20;22.03;;;13.00;;
3405;SDS011;10008;48.682;9.016;2023-10-09T01:36:53;17.13;;;12.67;;
3405;SDS011;10008;48.682;9.016;2023-10-09T01:39:30;24.20;;;12.50;;
3405;SDS011;10008;48.682;9.016;2023-10-09T01:41:56;21.23;;;13.20;;
3405;SDS011;10008;48.682;9.016;2023-10-09T01:44:26;18.07;;;11.33;;
3405;SDS011;10008;48.682;9.016;2023-10-09T01:47:03;25.97;;;12.43;;
3405;SDS011;10008;48.682;9.016;2023-10-09T01:49:36;19.80;;;11.63;;
3405;SDS011;10008;48.682;9.016;2023-10-09T01:52:14;20.70;;;12.60;;
3405;SDS011;10008;48.682;9.016;2023-10-09T01:54:46;25.37;;;12.60;;
3405;SDS011;10008;48.682;9.016;2023-10-09T01:57:17;20.50;;;12.10;;
3405;SDS011;10008;48.682;9.016;2023-10-09T01:59:50;24.40;;;13.37;;
3405;SDS011;10008;48.682;9.016;2023-10-09T02:02:19;25.13;;;12.07;;
3405;SDS011;10008;48.682;9.016;2023-10-09T02:04:52;19.03;;;11.50;;
3405;SDS011;10008;48.682;9.016;2023-10-09T02:07:19;21.20;;;13.00;;
3405;SDS011;10008;48.682;9.016;2023-10-09T02:09:54;25.67;;;13.13;;
3405;SDS011;10008;48.682;9.016;2023-10-09T02:12:21;19.37;;;12.00;;
3405;SDS011;10008;48.682;9.016;2023-10-09T02:14:49;18.77;;;11.67;;
3405;SDS011;10008;48.682;9.016;2023-10-09T02:17:19;21.07;;;12.57;;
3405;SDS011;10008;48.682;9.016;2023-10-09T02:19:54;25.00;;;12.53;;
3405;SDS011;10008;48.682;9.016;2023-10-09T02:22:20;18.73;;;12.30;;
3405;SDS011;10008;48.682;9.016;2023-10-09T02:24:47;29.07;;;12.60;;
3405;SDS011;10008;48.682;9.016;2023-10-09T02:27:17;19.33;;;11.83;;
3405;SDS011;10008;48.682;9.016;2023-10-09T02:30:03;19.17;;;13.20;;
3405;SDS011;10008;48.682;9.016;2023-10-09T02:32:34;25.07;;;13.47;;
3405;SDS011;10008;48.682;9.016;2023-10-09T02:35:01;25.57;;;14.07;;
3405;SDS011;10008;48.682;9.016;2023-10-09T02:37:36;17.63;;;13.10;;
3405;SDS011;10008;48.682;9.016;2023-10-09T02:40:03;19.07;;;13.40;;
3405;SDS011;10008;48.682;9.016;2023-10-09T02:42:34;19.13;;;13.40;;
3405;SDS011;10008;48.682;9.016;2023-10-09T02:45:00;25.83;;;12.80;;
3405;SDS011;10008;48.682;9.016;2023-10-09T02:47:28;23.73;;;13.87;;
3405;SDS011;10008;48.682;9.016;2023-10-09T02:49:56;21.17;;;13.10;;
3405;SDS011;10008;48.682;9.016;2023-10-09T02:52:31;22.07;;;13.10;;
3405;SDS011;10008;48.682;9.016;2023-10-09T02:55:05;20.30;;;14.50;;
3405;SDS011;10008;48.682;9.016;2023-10-09T02:57:37;23.53;;;12.90;;
3405;SDS011;10008;48.682;9.016;2023-10-09T03:00:05;18.70;;;12.77;;
3405;SDS011;10008;48.682;9.016;2023-10-09T03:02:34;20.17;;;13.10;;
3405;SDS011;10008;48.682;9.016;2023-10-09T03:05:05;18.37;;;13.90;;
3405;SDS011;10008;48.682;9.016;2023-10-09T03:07:37;20.63;;;13.60;;
3405;SDS011;10008;48.682;9.016;2023-10-09T03:10:05;25.20;;;14.53;;
3405;SDS011;10008;48.682;9.016;2023-10-09T03:12:34;17.67;;;13.60;;
3405;SDS011;10008;48.682;9.016;2023-10-09T03:15:04;22.23;;;13.90;;
3405;SDS011;10008;48.682;9.016;2023-10-09T03:17:33;20.03;;;13.93;;
3405;SDS011;10008;48.682;9.016;2023-10-09T03:20:06;27.93;;;14.77;;
3405;SDS011;10008;48.682;9.016;2023-10-09T03:22:39;21.50;;;14.00;;
3405;SDS011;10008;48.682;9.016;2023-10-09T03:25:06;22.47;;;14.50;;
3405;SDS011;10008;48.682;9.016;2023-10-09T03:27:42;22.27;;;13.73;;
3405;SDS011;10008;48.682;9.016;2023-10-09T03:30:11;21.43;;;14.27;;
3405;SDS011;10008;48.682;9.016;2023-10-09T03:32:47;26.00;;;13.57;;
3405;SDS011;10008;48.682;9.016;2023-10-09T03:35:19;26.73;;;14.30;;
3405;SDS011;10008;48.682;9.016;2023-10-09T03:37:58;19.93;;;13.40;;
3405;SDS011;10008;48.682;9.016;2023-10-09T03:40:36;21.23;;;14.83;;
3405;SDS011;10008;48.682;9.016;2023-10-09T03:43:09;20.03;;;12.93;;
3405;SDS011;10008;48.682;9.016;2023-10-09T03:45:39;20.47;;;13.97;;
3405;SDS011;10008;48.682;9.016;2023-10-09T03:48:17;20.33;;;13.67;;
3405;SDS011;10008;48.682;9.016;2023-10-09T03:50:47;18.57;;;12.87;;
3405;SDS011;10008;48.682;9.016;2023-10-09T03:53:13;25.30;;;13.80;;
3405;SDS011;10008;48.682;9.016;2023-10-09T03:55:39;21.20;;;14.07;;
3405;SDS011;10008;48.682;9.016;2023-10-09T03:58:08;17.33;;;13.20;;
3405;SDS011;10008;48.682;9.016;2023-10-09T04:00:37;19.40;;;13.50;;
3405;SDS011;10008;48.682;9.016;2023-10-09T04:03:14;19.53;;;13.67;;
3405;SDS011;10008;48.682;9.016;2023-10-09T04:05:40;22.77;;;13.87;;
3405;SDS011;10008;48.682;9.016;2023-10-09T04:08:11;20.67;;;13.93;;
3405;SDS011;10008;48.682;9.016;2023-10-09T04:10:46;23.63;;;14.30;;
3405;SDS011;10008;48.682;9.016;2023-10-09T04:13:18;20.13;;;13.73;;
3405;SDS011;10008;48.682;9.016;2023-10-09T04:15:48;21.43;;;12.80;;
3405;SDS011;10008;48.682;9.016;2023-10-09T04:18:15;22.40;;;14.30;;
3405;SDS011;10008;48.682;9.016;2023-10-09T04:20:42;26.00;;;17.57;;
3405;SDS011;10008;48.682;9.016;2023-10-09T04:23:26;24.00;;;17.40;;
3405;SDS011;10008;48.682;9.016;2023-10-09T04:26:21;23.30;;;14.87;;
3405;SDS011;10008;48.682;9.016;2023-10-09T04:28:50;25.40;;;14.57;;
3405;SDS011;10008;48.682;9.016;2023-10-09T04:31:18;24.37;;;14.30;;
3405;SDS011;10008;48.682;9.016;2023-10-09T04:33:47;24.30;;;14.80;;
3405;SDS011;10008;48.682;9.016;2023-10-09T04:36:41;21.87;;;13.90;;
3405;SDS011;10008;48.682;9.016;2023-10-09T04:39:14;25.00;;;14.73;;
3405;SDS011;10008;48.682;9.016;2023-10-09T04:41:55;17.83;;;13.50;;
3405;SDS011;10008;48.682;9.016;2023-10-09T04:44:44;24.57;;;13.70;;
3405;SDS011;10008;48.682;9.016;2023-10-09T04:47:29;21.57;;;13.27;;
3405;SDS011;10008;48.682;9.016;2023-10-09T04:52:36;24.77;;;14.17;;
3405;SDS011;10008;48.682;9.016;2023-10-09T04:55:03;25.80;;;14.30;;
3405;SDS011;10008;48.682;9.016;2023-10-09T04:57:32;26.23;;;14.93;;
3405;SDS011;10008;48.682;9.016;2023-10-09T05:00:11;28.93;;;15.90;;
3405;SDS011;10008;48.682;9.016;2023-10-09T05:02:50;26.30;;;14.03;;
3405;SDS011;10008;48.682;9.016;2023-10-09T05:05:21;23.30;;;14.10;;
3405;SDS011;10008;48.682;9.016;2023-10-09T05:08:15;19.07;;;14.20;;
3405;SDS011;10008;48.682;9.016;2023-10-09T05:10:49;18.93;;;14.27;;
3405;SDS011;10008;48.682;9.016;2023-10-09T05:13:28;21.60;;;13.90;;
3405;SDS011;10008;48.682;9.016;2023-10-09T05:16:07;21.90;;;14.47;;
3405;SDS011;10008;48.682;9.016;2023-10-09T05:18:56;32.53;;;15.67;;
3405;SDS011;10008;48.682;9.016;2023-10-09T05:21:26;24.97;;;14.50;;
3405;SDS011;10008;48.682;9.016;2023-10-09T05:23:58;26.00;;;14.43;;
3405;SDS011;10008;48.682;9.016;2023-10-09T05:26:37;24.63;;;14.60;;
3405;SDS011;10008;48.682;9.016;2023-10-09T05:31:45;23.40;;;15.13;;
3405;SDS011;10008;48.682;9.016;2023-10-09T05:34:32;25.17;;;14.90;;
3405;SDS011;10008;48.682;9.016;2023-10-09T05:37:08;23.10;;;13.97;;
3405;SDS011;10008;48.682;9.016;2023-10-09T05:39:55;20.27;;;15.10;;
3405;SDS011;10008;48.682;9.016;2023-10-09T05:45:11;22.03;;;15.30;;
3405;SDS011;10008;48.682;9.016;2023-10-09T05:47:43;23.43;;;15.13;;
3405;SDS011;10008;48.682;9.016;2023-10-09T05:50:19;25.33;;;15.43;;
3405;SDS011;10008;48.682;9.016;2023-10-09T05:52:59;25.07;;;15.13;;
3405;SDS011;10008;48.682;9.016;2023-10-09T05:55:28;28.57;;;15.67;;
3405;SDS011;10008;48.682;9.016;2023-10-09T05:58:33;21.83;;;15.33;;
3405;SDS011;10008;48.682;9.016;2023-10-09T06:01:18;20.87;;;15.13;;
3405;SDS011;10008;48.682;9.016;2023-10-09T06:04:03;24.10;;;16.00;;
3405;SDS011;10008;48.682;9.016;2023-10-09T06:06:43;22.37;;;15.90;;
3405;SDS011;10008;48.682;9.016;2023-10-09T06:09:11;27.37;;;15.80;;
3405;SDS011;10008;48.682;9.016;2023-10-09T06:11:38;22.80;;;15.20;;
3405;SDS011;10008;48.682;9.016;2023-10-09T06:14:04;29.43;;;16.13;;
3405;SDS011;10008;48.682;9.016;2023-10-09T06:16:36;28.83;;;15.73;;
3405;SDS011;10008;48.682;9.016;2023-10-09T06:19:07;28.07;;;16.47;;
3405;SDS011;10008;48.682;9.016;2023-10-09T06:21:40;25.20;;;16.43;;
3405;SDS011;10008;48.682;9.016;2023-10-09T06:24:18;22.43;;;15.30;;
3405;SDS011;10008;48.682;9.016;2023-10-09T06:26:45;24.13;;;15.67;;
3405;SDS011;10008;48.682;9.016;2023-10-09T06:29:38;29.00;;;15.77;;
3405;SDS011;10008;48.682;9.016;2023-10-09T06:32:11;23.13;;;15.50;;
3405;SDS011;10008;48.682;9.016;2023-10-09T06:34:58;25.73;;;16.00;;
3405;SDS011;10008;48.682;9.016;2023-10-09T06:37:41;23.73;;;15.83;;
3405;SDS011;10008;48.682;9.016;2023-10-09T06:40:29;26.37;;;16.73;;
3405;SDS011;10008;48.682;9.016;2023-10-09T06:43:01;20.47;;;15.23;;
3405;SDS011;10008;48.682;9.016;2023-10-09T06:45:57;20.87;;;16.20;;
3405;SDS011;10008;48.682;9.016;2023-10-09T06:48:43;28.20;;;15.73;;
3405;SDS011;10008;48.682;9.016;2023-10-09T06:51:21;22.70;;;15.43;;
3405;SDS011;10008;48.682;9.016;2023-10-09T06:53:50;19.43;;;16.00;;
3405;SDS011;10008;48.682;9.016;2023-10-09T06:56:19;24.33;;;16.17;;
3405;SDS011;10008;48.682;9.016;2023-10-09T06:59:08;24.00;;;15.90;;
3405;SDS011;10008;48.682;9.016;2023-10-09T07:01:48;27.70;;;17.47;;
3405;SDS011;10008;48.682;9.016;2023-10-09T07:04:34;23.43;;;16.60;;
3405;SDS011;10008;48.682;9.016;2023-10-09T07:07:00;20.90;;;15.67;;
3405;SDS011;10008;48.682;9.016;2023-10-09T07:09:27;20.17;;;15.40;;
3405;SDS011;10008;48.682;9.016;2023-10-09T07:12:08;22.63;;;16.00;;
3405;SDS011;10008;48.682;9.016;2023-10-09T07:14:51;25.57;;;15.40;;
3405;SDS011;10008;48.682;9.016;2023-10-09T07:17:26;26.30;;;16.60;;
3405;SDS011;10008;48.682;9.016;2023-10-09T07:19:58;26.23;;;16.53;;
3405;SDS011;10008;48.682;9.016;2023-10-09T07:22:44;25.57;;;15.60;;
3405;SDS011;10008;48.682;9.016;2023-10-09T07:25:21;21.87;;;15.77;;
3405;SDS011;10008;48.682;9.016;2023-10-09T07:28:06;19.37;;;16.93;;
3405;SDS011;10008;48.682;9.016;2023-10-09T07:30:46;20.63;;;18.03;;
3405;SDS011;10008;48.682;9.016;2023-10-09T07:33:12;24.40;;;16.00;;
3405;SDS011;10008;48.682;9.016;2023-10-09T07:35:39;20.30;;;16.23;;
3405;SDS011;10008;48.682;9.016;2023-10-09T07:38:16;25.83;;;16.67;;
3405;SDS011;10008;48.682;9.016;2023-10-09T07:40:45;28.60;;;16.33;;
3405;SDS011;10008;48.682;9.016;2023-10-09T07:43:30;21.83;;;16.37;;
3405;SDS011;10008;48.682;9.016;2023-10-09T07:46:04;24.60;;;15.60;;
3405;SDS011;10008;48.682;9.016;2023-10-09T07:48:49;28.97;;;15.47;;
3405;SDS011;10008;48.682;9.016;2023-10-09T07:51:21;29.90;;;16.90;;
3405;SDS011;10008;48.682;9.016;2023-10-09T07:53:57;24.87;;;16.33;;
3405;SDS011;10008;48.682;9.016;2023-10-09T07:56:32;25.60;;;16.37;;
3405;SDS011;10008;48.682;9.016;2023-10-09T07:59:06;28.87;;;16.83;;
3405;SDS011;10008;48.682;9.016;2023-10-09T08:01:42;26.40;;;16.00;;
3405;SDS011;10008;48.682;9.016;2023-10-09T08:04:23;29.13;;;16.07;;
3405;SDS011;10008;48.682;9.016;2023-10-09T08:07:03;27.63;;;16.50;;
3405;SDS011;10008;48.682;9.016;2023-10-09T08:09:33;21.67;;;16.50;;
3405;SDS011;10008;48.682;9.016;2023-10-09T08:12:12;26.93;;;16.37;;
3405;SDS011;10008;48.682;9.016;2023-10-09T08:14:40;28.77;;;16.20;;
3405;SDS011;10008;48.682;9.016;2023-10-09T08:17:10;35.17;;;16.70;;
3405;SDS011;10008;48.682;9.016;2023-10-09T08:19:39;29.40;;;16.73;;
3405;SDS011;10008;48.682;9.016;2023-10-09T08:22:30;29.00;;;16.07;;
3405;SDS011;10008;48.682;9.016;2023-10-09T08:25:08;28.10;;;16.40;;
3405;SDS011;10008;48.682;9.016;2023-10-09T08:27:53;27.50;;;15.70;;
3405;SDS011;10008;48.682;9.016;2023-10-09T08:30:20;23.30;;;17.40;;
3405;SDS011;10008;48.682;9.016;2023-10-09T08:32:48;24.03;;;16.50;;
3405;SDS011;10008;48.682;9.016;2023-10-09T08:35:29;24.33;;;15.60;;
3405;SDS011;10008;48.682;9.016;2023-10-09T08:38:01;26.80;;;16.70;;
3405;SDS011;10008;48.682;9.016;2023-10-09T08:40:33;23.80;;;16.13;;
3405;SDS011;10008;48.682;9.016;2023-10-09T08:43:17;26.23;;;16.37;;
3405;SDS011;10008;48.682;9.016;2023-10-09T08:45:53;20.77;;;15.17;;
3405;SDS011;10008;48.682;9.016;2023-10-09T08:48:26;24.20;;;15.40;;
3405;SDS011;10008;48.682;9.016;2023-10-09T08:50:53;26.50;;;15.30;;
3405;SDS011;10008;48.682;9.016;2023-10-09T08:53:20;27.50;;;15.20;;
3405;SDS011;10008;48.682;9.016;2023-10-09T08:55:47;25.67;;;16.70;;
3405;SDS011;10008;48.682;9.016;2023-10-09T08:58:16;33.50;;;15.87;;
3405;SDS011;10008;48.682;9.016;2023-10-09T09:00:46;27.47;;;17.80;;
3405;SDS011;10008;48.682;9.016;2023-10-09T09:03:16;27.63;;;15.70;;
3405;SDS011;10008;48.682;9.016;2023-10-09T09:05:45;30.30;;;15.33;;
3405;SDS011;10008;48.682;9.016;2023-10-09T09:08:23;31.83;;;15.63;;
3405;SDS011;10008;48.682;9.016;2023-10-09T09:10:55;24.07;;;14.93;;
3405;SDS011;10008;48.682;9.016;2023-10-09T09:13:47;25.87;;;15.33;;
3405;SDS011;10008;48.682;9.016;2023-10-09T09:16:30;26.87;;;14.80;;
3405;SDS011;10008;48.682;9.016;2023-10-09T09:18:57;22.40;;;14.63;;
3405;SDS011;10008;48.682;9.016;2023-10-09T09:21:31;28.10;;;15.60;;
3405;SDS011;10008;48.682;9.016;2023-10-09T09:24:05;24.63;;;14.90;;
3405;SDS011;10008;48.682;9.016;2023-10-09T09:26:52;23.70;;;15.63;;
3405;SDS011;10008;48.682;9.016;2023-10-09T09:32:04;21.53;;;14.63;;
3405;SDS011;10008;48.682;9.016;2023-10-09T09:34:45;23.03;;;14.47;;
3405;SDS011;10008;48.682;9.016;2023-10-09T09:37:20;21.60;;;14.67;;
3405;SDS011;10008;48.682;9.016;2023-10-09T09:39:52;18.20;;;14.40;;
3405;SDS011;10008;48.682;9.016;2023-10-09T09:42:18;24.80;;;14.80;;
3405;SDS011;10008;48.682;9.016;2023-10-09T09:44:49;20.17;;;14.27;;
3405;SDS011;10008;48.682;9.016;2023-10-09T09:47:16;23.83;;;15.43;;
3405;SDS011;10008;48.682;9.016;2023-10-09T09:49:51;19.70;;;15.10;;
3405;SDS011;10008;48.682;9.016;2023-10-09T09:52:33;23.13;;;15.77;;
3405;SDS011;10008;48.682;9.016;2023-10-09T09:55:06;22.13;;;15.10;;
3405;SDS011;10008;48.682;9.016;2023-10-09T09:57:39;21.30;;;14.70;;
3405;SDS011;10008;48.682;9.016;2023-10-09T10:00:06;27.73;;;14.90;;
3405;SDS011;10008;48.682;9.016;2023-10-09T10:02:52;21.90;;;14.73;;
3405;SDS011;10008;48.682;9.016;2023-10-09T10:05:23;28.97;;;16.30;;
3405;SDS011;10008;48.682;9.016;2023-10-09T10:07:56;23.60;;;15.20;;
3405;SDS011;10008;48.682;9.016;2023-10-09T10:16:08;32.63;;;15.80;;
3405;SDS011;10008;48.682;9.016;2023-10-09T10:21:28;30.40;;;16.77;;
3405;SDS011;10008;48.682;9.016;2023-10-09T10:23:57;32.40;;;16.20;;
3405;SDS011;10008;48.682;9.016;2023-10-09T10:26:35;32.00;;;16.60;;
3405;SDS011;10008;48.682;9.016;2023-10-09T10:29:22;25.87;;;15.93;;
3405;SDS011;10008;48.682;9.016;2023-10-09T10:34:25;34.40;;;16.87;;
3405;SDS011;10008;48.682;9.016;2023-10-09T10:36:52;28.27;;;15.97;;
3405;SDS011;10008;48.682;9.016;2023-10-09T10:39:25;33.27;;;16.30;;
3405;SDS011;10008;48.682;9.016;2023-10-09T10:42:14;33.47;;;16.10;;
3405;SDS011;10008;48.682;9.016;2023-10-09T10:44:59;36.00;;;16.20;;
3405;SDS011;10008;48.682;9.016;2023-10-09T10:47:48;28.03;;;15.50;;
3405;SDS011;10008;48.682;9.016;2023-10-09T10:50:14;28.50;;;16.77;;
3405;SDS011;10008;48.682;9.016;2023-10-09T10:53:07;30.30;;;16.67;;
3405;SDS011;10008;48.682;9.016;2023-10-09T10:56:00;31.80;;;16.60;;
3405;SDS011;10008;48.682;9.016;2023-10-09T10:58:39;26.63;;;15.93;;
3405;SDS011;10008;48.682;9.016;2023-10-09T11:01:37;30.17;;;16.63;;
3405;SDS011;10008;48.682;9.016;2023-10-09T11:04:23;31.30;;;16.63;;
3405;SDS011;10008;48.682;9.016;2023-10-09T11:06:59;41.97;;;17.00;;
3405;SDS011;10008;48.682;9.016;2023-10-09T11:12:28;27.27;;;16.10;;
3405;SDS011;10008;48.682;9.016;2023-10-09T11:18:10;32.27;;;15.90;;
3405;SDS011;10008;48.682;9.016;2023-10-09T11:20:43;27.83;;;16.40;;
3405;SDS011;10008;48.682;9.016;2023-10-09T11:23:27;29.40;;;15.80;;
3405;SDS011;10008;48.682;9.016;2023-10-09T11:26:00;31.17;;;17.17;;
3405;SDS011;10008;48.682;9.016;2023-10-09T11:28:47;36.00;;;16.30;;
3405;SDS011;10008;48.682;9.016;2023-10-09T11:32:01;36.43;;;16.87;;
3405;SDS011;10008;48.682;9.016;2023-10-09T11:34:31;27.40;;;15.77;;
3405;SDS011;10008;48.682;9.016;2023-10-09T11:36:58;35.70;;;16.23;;
3405;SDS011;10008;48.682;9.016;2023-10-09T11:39:26;30.67;;;16.40;;
3405;SDS011;10008;48.682;9.016;2023-10-09T11:42:17;39.00;;;16.63;;
3405;SDS011;10008;48.682;9.016;2023-10-09T11:45:03;31.30;;;16.67;;
3405;SDS011;10008;48.682;9.016;2023-10-09T11:47:47;28.20;;;15.70;;
3405;SDS011;10008;48.682;9.016;2023-10-09T11:50:45;26.53;;;16.67;;
3405;SDS011;10008;48.682;9.016;2023-10-09T11:53:41;22.43;;;15.40;;
3405;SDS011;10008;48.682;9.016;2023-10-09T11:56:22;23.40;;;15.43;;
3405;SDS011;10008;48.682;9.016;2023-10-09T11:58:52;24.30;;;15.40;;
3405;SDS011;10008;48.682;9.016;2023-10-09T12:01:18;27.83;;;15.10;;
3405;SDS011;10008;48.682;9.016;2023-10-09T12:03:49;25.73;;;14.90;;
3405;SDS011;10008;48.682;9.016;2023-10-09T12:06:19;21.77;;;15.90;;
3405;SDS011;10008;48.682;9.016;2023-10-09T12:08:49;22.47;;;15.27;;
3405;SDS011;10008;48.682;9.016;2023-10-09T12:11:15;22.10;;;15.40;;
3405;SDS011;10008;48.682;9.016;2023-10-09T12:13:50;24.23;;;14.87;;
3405;SDS011;10008;48.682;9.016;2023-10-09T12:16:24;18.03;;;15.50;;
3405;SDS011;10008;48.682;9.016;2023-10-09T12:18:53;18.33;;;14.80;;
3405;SDS011;10008;48.682;9.016;2023-10-09T12:21:20;21.27;;;15.27;;
3405;SDS011;10008;48.682;9.016;2023-10-09T12:23:46;18.10;;;15.00;;
3405;SDS011;10008;48.682;9.016;2023-10-09T12:26:12;16.67;;;14.87;;
3405;SDS011;10008;48.682;9.016;2023-10-09T12:28:41;20.37;;;16.20;;
3405;SDS011;10008;48.682;9.016;2023-10-09T12:31:15;19.87;;;14.77;;
3405;SDS011;10008;48.682;9.016;2023-10-09T12:33:45;20.97;;;15.20;;
3405;SDS011;10008;48.682;9.016;2023-10-09T12:36:12;24.90;;;15.20;;
3405;SDS011;10008;48.682;9.016;2023-10-09T12:38:45;23.93;;;15.57;;
3405;SDS011;10008;48.682;9.016;2023-10-09T12:41:19;27.47;;;16.00;;
3405;SDS011;10008;48.682;9.016;2023-10-09T12:43:52;26.43;;;16.10;;
3405;SDS011;10008;48.682;9.016;2023-10-09T12:46:18;20.90;;;15.70;;
3405;SDS011;10008;48.682;9.016;2023-10-09T12:48:56;26.50;;;15.30;;
3405;SDS011;10008;48.682;9.016;2023-10-09T12:51:23;24.53;;;17.03;;
3405;SDS011;10008;48.682;9.016;2023-10-09T12:53:54;25.93;;;16.90;;
3405;SDS011;10008;48.682;9.016;2023-10-09T12:56:24;27.93;;;16.40;;
3405;SDS011;10008;48.682;9.016;2023-10-09T12:59:02;26.63;;;15.90;;
3405;SDS011;10008;48.682;9.016;2023-10-09T13:01:30;26.23;;;15.27;;
3405;SDS011;10008;48.682;9.016;2023-10-09T13:04:10;22.70;;;15.40;;
3405;SDS011;10008;48.682;9.016;2023-10-09T13:06:39;27.33;;;15.93;;
3405;SDS011;10008;48.682;9.016;2023-10-09T13:09:12;27.50;;;16.37;;
3405;SDS011;10008;48.682;9.016;2023-10-09T13:11:41;24.47;;;15.47;;
3405;SDS011;10008;48.682;9.016;2023-10-09T13:14:08;23.20;;;15.27;;
3405;SDS011;10008;48.682;9.016;2023-10-09T13:16:42;25.20;;;15.87;;
3405;SDS011;10008;48.682;9.016;2023-10-09T13:19:08;23.70;;;15.97;;
3405;SDS011;10008;48.682;9.016;2023-10-09T13:21:35;24.50;;;15.70;;
3405;SDS011;10008;48.682;9.016;2023-10-09T13:24:04;25.53;;;15.43;;
3405;SDS011;10008;48.682;9.016;2023-10-09T13:26:31;23.97;;;15.97;;
3405;SDS011;10008;48.682;9.016;2023-10-09T13:29:00;24.07;;;15.43;;
3405;SDS011;10008;48.682;9.016;2023-10-09T13:31:26;27.27;;;16.27;;
3405;SDS011;10008;48.682;9.016;2023-10-09T13:33:53;21.77;;;15.80;;
3405;SDS011;10008;48.682;9.016;2023-10-09T13:36:24;24.17;;;16.03;;
3405;SDS011;10008;48.682;9.016;2023-10-09T13:39:00;22.43;;;15.83;;
3405;SDS011;10008;48.682;9.016;2023-10-09T13:41:49;23.93;;;16.80;;
3405;SDS011;10008;48.682;9.016;2023-10-09T13:44:23;30.20;;;16.10;;
3405;SDS011;10008;48.682;9.016;2023-10-09T13:46:52;22.03;;;15.50;;
3405;SDS011;10008;48.682;9.016;2023-10-09T13:49:21;19.83;;;16.07;;
3405;SDS011;10008;48.682;9.016;2023-10-09T13:52:00;25.27;;;15.63;;
3405;SDS011;10008;48.682;9.016;2023-10-09T13:54:26;19.10;;;15.20;;
3405;SDS011;10008;48.682;9.016;2023-10-09T13:57:02;21.17;;;15.50;;
3405;SDS011;10008;48.682;9.016;2023-10-09T13:59:33;18.17;;;15.70;;
3405;SDS011;10008;48.682;9.016;2023-10-09T14:02:02;19.03;;;15.63;;
3405;SDS011;10008;48.682;9.016;2023-10-09T14:04:35;18.47;;;16.57;;
3405;SDS011;10008;48.682;9.016;2023-10-09T14:07:01;19.70;;;15.93;;
3405;SDS011;10008;48.682;9.016;2023-10-09T14:09:30;19.80;;;15.30;;
3405;SDS011;10008;48.682;9.016;2023-10-09T14:12:00;18.10;;;16.17;;
3405;SDS011;10008;48.682;9.016;2023-10-09T14:17:09;17.70;;;15.90;;
3405;SDS011;10008;48.682;9.016;2023-10-09T14:19:39;20.43;;;16.10;;
3405;SDS011;10008;48.682;9.016;2023-10-09T14:22:06;17.90;;;16.10;;
3405;SDS011;10008;48.682;9.016;2023-10-09T14:24:32;19.27;;;16.43;;
3405;SDS011;10008;48.682;9.016;2023-10-09T14:27:02;17.13;;;15.37;;
3405;SDS011;10008;48.682;9.016;2023-10-09T14:29:32;18.93;;;15.37;;
3405;SDS011;10008;48.682;9.016;2023-10-09T14:32:02;20.40;;;15.80;;
3405;SDS011;10008;48.682;9.016;2023-10-09T14:34:28;22.43;;;15.90;;
3405;SDS011;10008;48.682;9.016;2023-10-09T14:36:58;16.93;;;14.97;;
3405;SDS011;10008;48.682;9.016;2023-10-09T14:39:28;18.53;;;15.37;;
3405;SDS011;10008;48.682;9.016;2023-10-09T14:41:54;21.07;;;16.03;;
3405;SDS011;10008;48.682;9.016;2023-10-09T14:44:23;21.67;;;15.70;;
3405;SDS011;10008;48.682;9.016;2023-10-09T14:46:49;22.43;;;15.93;;
3405;SDS011;10008;48.682;9.016;2023-10-09T14:49:16;27.53;;;16.80;;
3405;SDS011;10008;48.682;9.016;2023-10-09T14:51:46;21.07;;;16.07;;
3405;SDS011;10008;48.682;9.016;2023-10-09T14:54:12;24.77;;;16.00;;
3405;SDS011;10008;48.682;9.016;2023-10-09T14:56:43;19.90;;;15.50;;
3405;SDS011;10008;48.682;9.016;2023-10-09T14:59:10;23.30;;;15.80;;
3405;SDS011;10008;48.682;9.016;2023-10-09T15:01:37;21.93;;;15.70;;
3405;SDS011;10008;48.682;9.016;2023-10-09T15:04:03;20.13;;;15.47;;
3405;SDS011;10008;48.682;9.016;2023-10-09T15:06:29;23.90;;;15.70;;
3405;SDS011;10008;48.682;9.016;2023-10-09T15:08:56;19.73;;;15.63;;
3405;SDS011;10008;48.682;9.016;2023-10-09T15:11:24;20.37;;;16.00;;
3405;SDS011;10008;48.682;9.016;2023-10-09T15:13:54;26.13;;;16.03;;
3405;SDS011;10008;48.682;9.016;2023-10-09T15:16:23;20.17;;;15.47;;
3405;SDS011;10008;48.682;9.016;2023-10-09T15:18:54;22.77;;;16.20;;
3405;SDS011;10008;48.682;9.016;2023-10-09T15:21:28;21.50;;;16.20;;
3405;SDS011;10008;48.682;9.016;2023-10-09T15:23:57;24.83;;;16.60;;
3405;SDS011;10008;48.682;9.016;2023-10-09T15:26:24;21.57;;;15.90;;
3405;SDS011;10008;48.682;9.016;2023-10-09T15:28:50;25.20;;;16.57;;
3405;SDS011;10008;48.682;9.016;2023-10-09T15:31:17;27.50;;;16.60;;
3405;SDS011;10008;48.682;9.016;2023-10-09T15:33:44;25.10;;;16.77;;
3405;SDS011;10008;48.682;9.016;2023-10-09T15:36:13;24.50;;;15.67;;
3405;SDS011;10008;48.682;9.016;2023-10-09T15:38:40;21.73;;;15.73;;
3405;SDS011;10008;48.682;9.016;2023-10-09T15:41:06;28.63;;;15.83;;